createdAt,value
2018-02-15T00:00:58.165Z,77.48
2018-02-15T00:01:58.147Z,77.86
2018-02-15T00:02:58.122Z,78.99
2018-02-15T00:03:58.099Z,76.91
2018-02-15T00:04:58.080Z,75.40
2018-02-15T00:05:58.061Z,76.34
2018-02-15T00:06:58.045Z,76.21
2018-02-15T00:07:58.018Z,75.93
2018-02-15T00:08:58.000Z,76.87
2018-02-15T00:09:57.978Z,78.05
2018-02-15T00:10:57.968Z,77.29
2018-02-15T00:11:57.936Z,77.95
2018-02-15T00:12:57.923Z,76.91
2018-02-15T00:13:57.897Z,79.56
2018-02-15T00:14:57.878Z,78.99
2018-02-15T00:15:57.858Z,80.60
2018-02-15T00:16:57.836Z,77.76
2018-02-15T00:17:57.817Z,78.90
2018-02-15T00:18:57.798Z,78.99
2018-02-15T00:19:57.782Z,79.37
2018-02-15T00:20:57.758Z,78.52
2018-02-15T00:21:57.734Z,80.04
2018-02-15T00:22:57.718Z,79.47
2018-02-15T00:23:57.696Z,78.42
2018-02-15T00:24:57.673Z,79.28
2018-02-15T00:25:57.653Z,77.20
2018-02-15T00:26:57.641Z,77.48
2018-02-15T00:27:57.611Z,77.86
2018-02-15T00:28:57.594Z,79.75
2018-02-15T00:29:57.572Z,79.56
2018-02-15T00:30:57.559Z,77.76
2018-02-15T00:31:57.532Z,77.48
2018-02-15T00:32:57.516Z,79.09
2018-02-15T00:33:57.490Z,81.64
2018-02-15T00:34:57.477Z,82.12
2018-02-15T00:35:57.451Z,80.41
2018-02-15T00:36:57.427Z,80.98
2018-02-15T00:37:57.409Z,80.98
2018-02-15T00:38:57.388Z,78.52
2018-02-15T00:39:57.371Z,80.60
2018-02-15T00:40:57.349Z,78.71
2018-02-15T00:41:57.333Z,77.86
2018-02-15T00:42:57.308Z,78.90
2018-02-15T00:43:57.287Z,79.66
2018-02-15T00:44:57.270Z,82.59
2018-02-15T00:45:57.247Z,81.64
2018-02-15T00:46:57.225Z,78.80
2018-02-15T00:47:57.208Z,79.18
2018-02-15T00:48:57.184Z,78.52
2018-02-15T00:49:57.169Z,77.29
2018-02-15T00:50:57.147Z,76.82
2018-02-15T00:51:57.125Z,78.99
2018-02-15T00:52:57.102Z,76.91
2018-02-15T00:53:57.083Z,77.10
2018-02-15T00:54:57.067Z,77.20
2018-02-15T00:55:57.044Z,77.48
2018-02-15T00:56:57.021Z,77.39
2018-02-15T00:57:57.003Z,77.95
2018-02-15T00:58:56.983Z,80.04
2018-02-15T00:59:56.965Z,77.86
2018-02-15T01:00:56.942Z,76.91
2018-02-15T01:01:56.918Z,76.78
2018-02-15T01:02:56.906Z,78.48
2018-02-15T01:03:56.883Z,80.37
2018-02-15T01:04:56.858Z,79.61
2018-02-15T01:05:56.842Z,79.80
2018-02-15T01:06:56.820Z,80.75
2018-02-15T01:07:56.795Z,81.03
2018-02-15T01:08:56.776Z,81.22
2018-02-15T01:09:56.758Z,82.17
2018-02-15T01:10:56.736Z,82.64
2018-02-15T01:11:56.722Z,82.64
2018-02-15T01:12:56.695Z,82.17
2018-02-15T01:13:56.682Z,82.45
2018-02-15T01:14:56.656Z,82.22
2018-02-15T01:15:56.639Z,82.79
2018-02-15T01:16:56.622Z,83.07
2018-02-15T01:17:56.604Z,82.79
2018-02-15T01:18:56.574Z,82.79
2018-02-15T01:19:56.558Z,82.79
2018-02-15T01:20:56.539Z,83.07
2018-02-15T01:21:56.514Z,82.60
2018-02-15T01:22:56.492Z,81.84
2018-02-15T01:23:56.481Z,81.93
2018-02-15T01:24:56.451Z,82.88
2018-02-15T01:25:56.435Z,82.50
2018-02-15T01:26:56.411Z,82.60
2018-02-15T01:27:56.395Z,82.31
2018-02-15T01:28:56.373Z,82.88
2018-02-15T01:29:56.351Z,83.64
2018-02-15T01:30:56.330Z,84.20
2018-02-15T01:31:56.321Z,84.11
2018-02-15T01:32:56.288Z,84.20
2018-02-15T01:33:56.268Z,84.96
2018-02-15T01:34:56.249Z,85.24
2018-02-15T01:35:56.232Z,85.62
2018-02-15T01:36:56.208Z,85.34
2018-02-15T01:37:56.189Z,85.53
2018-02-15T01:38:56.167Z,85.72
2018-02-15T01:39:56.145Z,85.53
2018-02-15T01:40:56.125Z,85.24
2018-02-15T01:41:56.114Z,85.53
2018-02-15T01:42:56.092Z,85.43
2018-02-15T01:43:56.064Z,85.43
2018-02-15T01:44:56.062Z,85.62
2018-02-15T01:45:56.025Z,85.24
2018-02-15T01:46:56.007Z,85.62
2018-02-15T01:47:55.983Z,85.43
2018-02-15T01:48:55.965Z,85.62
2018-02-15T01:49:55.944Z,84.77
2018-02-15T01:50:55.923Z,84.86
2018-02-15T01:51:55.902Z,84.86
2018-02-15T01:52:55.889Z,85.05
2018-02-15T01:53:55.866Z,84.96
2018-02-15T01:54:55.851Z,84.96
2018-02-15T01:55:55.825Z,84.96
2018-02-15T01:56:55.803Z,85.24
2018-02-15T01:57:55.781Z,85.24
2018-02-15T01:58:55.763Z,85.62
2018-02-15T01:59:55.748Z,85.43
2018-02-15T02:00:55.722Z,86.00
2018-02-15T02:01:55.700Z,85.43
2018-02-15T02:02:55.686Z,85.47
2018-02-15T02:03:55.660Z,84.44
2018-02-15T02:04:55.647Z,82.54
2018-02-15T02:05:55.622Z,83.11
2018-02-15T02:06:55.605Z,85.00
2018-02-15T02:07:55.579Z,83.78
2018-02-15T02:08:55.561Z,83.21
2018-02-15T02:09:55.538Z,83.02
2018-02-15T02:10:55.526Z,83.68
2018-02-15T02:11:55.507Z,84.34
2018-02-15T02:12:55.488Z,86.33
2018-02-15T02:13:55.457Z,84.72
2018-02-15T02:14:55.447Z,82.83
2018-02-15T02:15:55.418Z,81.51
2018-02-15T02:16:55.398Z,79.14
2018-02-15T02:17:55.381Z,79.33
2018-02-15T02:18:55.364Z,80.46
2018-02-15T02:19:55.337Z,81.51
2018-02-15T02:20:55.317Z,81.03
2018-02-15T02:21:55.299Z,80.84
2018-02-15T02:22:55.285Z,80.46
2018-02-15T02:23:55.265Z,79.80
2018-02-15T02:24:55.246Z,80.56
2018-02-15T02:25:55.222Z,80.37
2018-02-15T02:26:55.199Z,80.27
2018-02-15T02:27:55.176Z,81.03
2018-02-15T02:28:55.156Z,81.60
2018-02-15T02:29:55.137Z,81.98
2018-02-15T02:30:55.120Z,81.60
2018-02-15T02:31:55.101Z,81.98
2018-02-15T02:32:55.074Z,82.92
2018-02-15T02:33:55.056Z,82.64
2018-02-15T02:34:55.037Z,82.54
2018-02-15T02:35:55.015Z,82.73
2018-02-15T02:36:54.995Z,82.26
2018-02-15T02:37:54.980Z,82.07
2018-02-15T02:38:54.956Z,82.07
2018-02-15T02:39:54.934Z,81.65
2018-02-15T02:40:54.918Z,81.93
2018-02-15T02:41:54.896Z,82.07
2018-02-15T02:42:54.881Z,81.88
2018-02-15T02:43:54.855Z,83.59
2018-02-15T02:44:54.833Z,82.45
2018-02-15T02:45:54.813Z,82.26
2018-02-15T02:46:54.794Z,83.59
2018-02-15T02:47:54.774Z,83.02
2018-02-15T02:48:54.756Z,82.54
2018-02-15T02:49:54.737Z,81.70
2018-02-15T02:50:54.719Z,81.98
2018-02-15T02:51:54.693Z,81.88
2018-02-15T02:52:54.682Z,83.11
2018-02-15T02:53:54.661Z,83.11
2018-02-15T02:54:54.636Z,83.68
2018-02-15T02:55:54.614Z,83.78
2018-02-15T02:56:54.594Z,83.97
2018-02-15T02:57:54.572Z,84.06
2018-02-15T02:58:54.553Z,84.11
2018-02-15T02:59:54.535Z,84.25
2018-02-15T03:00:54.509Z,84.53
2018-02-15T03:01:54.495Z,85.00
2018-02-15T03:02:54.471Z,84.58
2018-02-15T03:03:54.455Z,84.58
2018-02-15T03:04:54.436Z,84.86
2018-02-15T03:05:54.418Z,84.77
2018-02-15T03:06:54.398Z,84.77
2018-02-15T03:07:54.377Z,84.86
2018-02-15T03:08:54.353Z,84.96
2018-02-15T03:09:54.328Z,85.62
2018-02-15T03:10:54.316Z,85.53
2018-02-15T03:11:54.295Z,85.72
2018-02-15T03:12:54.275Z,85.05
2018-02-15T03:13:54.250Z,86.52
2018-02-15T03:14:54.233Z,85.95
2018-02-15T03:15:54.214Z,85.10
2018-02-15T03:16:54.190Z,85.47
2018-02-15T03:17:54.177Z,85.28
2018-02-15T03:18:54.149Z,85.28
2018-02-15T03:19:54.131Z,85.10
2018-02-15T03:20:54.109Z,85.47
2018-02-15T03:21:54.089Z,85.47
2018-02-15T03:22:54.071Z,85.85
2018-02-15T03:23:54.047Z,85.57
2018-02-15T03:24:54.035Z,85.28
2018-02-15T03:25:54.009Z,85.62
2018-02-15T03:26:53.988Z,85.47
2018-02-15T03:27:53.967Z,85.62
2018-02-15T03:28:53.955Z,85.91
2018-02-15T03:29:53.928Z,85.81
2018-02-15T03:30:53.910Z,86.66
2018-02-15T03:31:53.889Z,86.29
2018-02-15T03:32:53.871Z,86.10
2018-02-15T03:33:53.847Z,86.14
2018-02-15T03:34:53.837Z,86.19
2018-02-15T03:35:53.808Z,85.81
2018-02-15T03:36:53.790Z,85.62
2018-02-15T03:37:53.777Z,86.10
2018-02-15T03:38:53.749Z,86.14
2018-02-15T03:39:53.729Z,86.14
2018-02-15T03:40:53.710Z,86.04
2018-02-15T03:41:53.689Z,86.04
2018-02-15T03:42:53.670Z,85.76
2018-02-15T03:43:53.654Z,85.38
2018-02-15T03:44:53.628Z,86.33
2018-02-15T03:45:53.616Z,85.19
2018-02-15T03:46:53.588Z,85.57
2018-02-15T03:47:53.571Z,84.81
2018-02-15T03:48:53.547Z,84.81
2018-02-15T03:49:53.532Z,85.00
2018-02-15T03:50:53.509Z,84.44
2018-02-15T03:51:53.488Z,84.72
2018-02-15T03:52:53.468Z,84.34
2018-02-15T03:53:53.448Z,84.53
2018-02-15T03:54:53.428Z,84.06
2018-02-15T03:55:53.409Z,84.81
2018-02-15T03:56:53.392Z,84.06
2018-02-15T03:57:53.374Z,85.10
2018-02-15T03:58:53.350Z,84.06
2018-02-15T03:59:53.337Z,83.59
2018-02-15T04:00:53.316Z,83.68
2018-02-15T04:01:53.288Z,83.68
2018-02-15T04:02:53.268Z,83.59
2018-02-15T04:03:53.248Z,83.59
2018-02-15T04:04:53.233Z,83.78
2018-02-15T04:05:53.215Z,83.68
2018-02-15T04:06:53.193Z,83.87
2018-02-15T04:07:53.167Z,83.30
2018-02-15T04:08:53.150Z,83.59
2018-02-15T04:09:53.129Z,84.25
2018-02-15T04:10:53.110Z,84.16
2018-02-15T04:11:53.089Z,84.06
2018-02-15T04:12:53.073Z,83.78
2018-02-15T04:13:53.053Z,83.78
2018-02-15T04:14:53.031Z,83.40
2018-02-15T04:15:53.008Z,84.16
2018-02-15T04:16:52.993Z,83.87
2018-02-15T04:17:52.974Z,83.59
2018-02-15T04:18:52.951Z,83.59
2018-02-15T04:19:52.929Z,83.87
2018-02-15T04:20:52.910Z,84.25
2018-02-15T04:21:52.888Z,84.91
2018-02-15T04:22:52.874Z,84.25
2018-02-15T04:23:52.849Z,84.34
2018-02-15T04:24:52.835Z,84.53
2018-02-15T04:25:52.813Z,84.25
2018-02-15T04:26:52.788Z,84.63
2018-02-15T04:27:52.767Z,84.25
2018-02-15T04:28:52.748Z,84.34
2018-02-15T04:29:52.727Z,84.63
2018-02-15T04:30:52.709Z,84.63
2018-02-15T04:31:52.698Z,85.00
2018-02-15T04:32:52.668Z,84.06
2018-02-15T04:33:52.655Z,83.59
2018-02-15T04:34:52.629Z,84.16
2018-02-15T04:35:52.607Z,83.40
2018-02-15T04:36:52.595Z,83.21
2018-02-15T04:37:52.576Z,83.40
2018-02-15T04:38:52.549Z,83.97
2018-02-15T04:39:52.530Z,83.78
2018-02-15T04:40:52.515Z,83.87
2018-02-15T04:41:52.489Z,83.68
2018-02-15T04:42:52.473Z,83.49
2018-02-15T04:43:52.448Z,83.40
2018-02-15T04:44:52.432Z,83.97
2018-02-15T04:45:52.409Z,83.40
2018-02-15T04:46:52.388Z,82.73
2018-02-15T04:47:52.375Z,82.35
2018-02-15T04:48:52.351Z,82.17
2018-02-15T04:49:52.333Z,82.07
2018-02-15T04:50:52.315Z,81.98
2018-02-15T04:51:52.290Z,82.17
2018-02-15T04:52:52.273Z,82.35
2018-02-15T04:53:52.262Z,82.54
2018-02-15T04:54:52.232Z,82.45
2018-02-15T04:55:52.212Z,82.64
2018-02-15T04:56:52.191Z,82.73
2018-02-15T04:57:52.182Z,82.64
2018-02-15T04:58:52.152Z,82.45
2018-02-15T04:59:52.140Z,82.54
2018-02-15T05:00:52.118Z,82.54
2018-02-15T05:01:52.094Z,82.73
2018-02-15T05:02:52.074Z,82.45
2018-02-15T05:03:52.053Z,82.45
2018-02-15T05:04:52.033Z,81.98
2018-02-15T05:05:52.021Z,81.70
2018-02-15T05:06:51.998Z,81.88
2018-02-15T05:07:51.972Z,81.88
2018-02-15T05:08:51.961Z,82.26
2018-02-15T05:09:51.932Z,82.26
2018-02-15T05:10:51.920Z,82.26
2018-02-15T05:11:51.892Z,82.45
2018-02-15T05:12:51.873Z,82.64
2018-02-15T05:13:51.854Z,82.83
2018-02-15T05:14:51.834Z,83.11
2018-02-15T05:15:51.815Z,82.54
2018-02-15T05:16:51.795Z,83.11
2018-02-15T05:17:51.782Z,83.40
2018-02-15T05:18:51.755Z,85.10
2018-02-15T05:19:51.738Z,87.93
2018-02-15T05:20:51.715Z,85.00
2018-02-15T05:21:51.699Z,83.78
2018-02-15T05:22:51.676Z,83.87
2018-02-15T05:23:51.663Z,84.06
2018-02-15T05:24:51.638Z,85.66
2018-02-15T05:25:51.623Z,86.80
2018-02-15T05:26:51.604Z,87.74
2018-02-15T05:27:51.578Z,87.93
2018-02-15T05:28:51.560Z,88.60
2018-02-15T05:29:51.538Z,88.31
2018-02-15T05:30:51.519Z,88.22
2018-02-15T05:31:51.496Z,88.79
2018-02-15T05:32:51.476Z,89.45
2018-02-15T05:33:51.456Z,89.73
2018-02-15T05:34:51.437Z,90.11
2018-02-15T05:35:51.416Z,90.49
2018-02-15T05:36:51.396Z,90.77
2018-02-15T05:37:51.383Z,92.19
2018-02-15T05:38:51.356Z,91.72
2018-02-15T05:39:51.336Z,91.72
2018-02-15T05:40:51.316Z,90.68
2018-02-15T05:41:51.298Z,89.73
2018-02-15T05:42:51.276Z,90.11
2018-02-15T05:43:51.259Z,90.68
2018-02-15T05:44:51.240Z,90.77
2018-02-15T05:45:51.217Z,90.86
2018-02-15T05:46:51.198Z,91.05
2018-02-15T05:47:51.179Z,91.24
2018-02-15T05:48:51.156Z,91.15
2018-02-15T05:49:51.137Z,91.43
2018-02-15T05:50:51.118Z,91.72
2018-02-15T05:51:51.100Z,92.10
2018-02-15T05:52:51.079Z,92.66
2018-02-15T05:53:51.060Z,92.66
2018-02-15T05:54:51.043Z,92.57
2018-02-15T05:55:51.026Z,92.29
2018-02-15T05:56:51.000Z,92.19
2018-02-15T05:57:50.979Z,92.57
2018-02-15T05:58:50.967Z,93.61
2018-02-15T05:59:50.947Z,93.70
2018-02-15T06:00:50.918Z,93.23
2018-02-15T06:01:50.900Z,93.13
2018-02-15T06:02:50.886Z,93.42
2018-02-15T06:03:50.866Z,93.61
2018-02-15T06:04:50.840Z,93.89
2018-02-15T06:05:50.827Z,94.18
2018-02-15T06:06:50.809Z,93.99
2018-02-15T06:07:50.788Z,93.70
2018-02-15T06:08:50.767Z,93.42
2018-02-15T06:09:50.747Z,94.08
2018-02-15T06:10:50.722Z,94.56
2018-02-15T06:11:50.704Z,95.26
2018-02-15T06:12:50.687Z,95.07
2018-02-15T06:13:50.667Z,94.89
2018-02-15T06:14:50.643Z,95.03
2018-02-15T06:15:50.628Z,95.12
2018-02-15T06:16:50.632Z,95.03
2018-02-15T06:17:50.583Z,95.12
2018-02-15T06:18:50.564Z,95.12
2018-02-15T06:19:50.541Z,95.31
2018-02-15T06:20:50.526Z,95.21
2018-02-15T06:21:50.549Z,95.31
2018-02-15T06:22:50.486Z,95.31
2018-02-15T06:23:50.466Z,95.31
2018-02-15T06:24:50.445Z,95.31
2018-02-15T06:25:50.428Z,95.59
2018-02-15T06:26:50.413Z,95.59
2018-02-15T06:27:50.390Z,95.69
2018-02-15T06:28:50.369Z,95.50
2018-02-15T06:29:50.347Z,95.03
2018-02-15T06:30:50.330Z,95.31
2018-02-15T06:31:50.318Z,95.78
2018-02-15T06:32:50.287Z,96.16
2018-02-15T06:33:50.268Z,95.69
2018-02-15T06:34:50.248Z,95.78
2018-02-15T06:35:50.230Z,95.97
2018-02-15T06:36:50.213Z,96.16
2018-02-15T06:37:50.186Z,95.88
2018-02-15T06:38:50.170Z,96.16
2018-02-15T06:39:50.154Z,96.73
2018-02-15T06:40:50.130Z,96.83
2018-02-15T06:41:50.114Z,96.45
2018-02-15T06:42:50.094Z,96.83
2018-02-15T06:43:50.067Z,97.11
2018-02-15T06:44:50.051Z,96.92
2018-02-15T06:45:50.031Z,96.92
2018-02-15T06:46:50.017Z,96.83
2018-02-15T06:47:49.998Z,96.45
2018-02-15T06:48:49.975Z,97.01
2018-02-15T06:49:49.950Z,96.92
2018-02-15T06:50:49.928Z,96.83
2018-02-15T06:51:49.913Z,96.64
2018-02-15T06:52:49.891Z,97.39
2018-02-15T06:53:49.873Z,97.39
2018-02-15T06:54:49.854Z,97.30
2018-02-15T06:55:49.836Z,97.30
2018-02-15T06:56:49.814Z,98.14
2018-02-15T06:57:49.791Z,97.20
2018-02-15T06:58:49.775Z,97.01
2018-02-15T06:59:49.749Z,97.30
2018-02-15T07:00:49.729Z,98.43
2018-02-15T07:01:49.715Z,98.90
2018-02-15T07:02:49.692Z,98.52
2018-02-15T07:03:49.671Z,98.14
2018-02-15T07:04:49.653Z,97.01
2018-02-15T07:05:49.632Z,97.49
2018-02-15T07:06:49.612Z,96.83
2018-02-15T07:07:49.598Z,96.45
2018-02-15T07:08:49.579Z,96.16
2018-02-15T07:09:49.550Z,95.88
2018-02-15T07:10:49.537Z,96.83
2018-02-15T07:11:49.515Z,95.88
2018-02-15T07:12:49.497Z,95.69
2018-02-15T07:13:49.473Z,95.97
2018-02-15T07:14:49.456Z,95.88
2018-02-15T07:15:49.432Z,95.78
2018-02-15T07:16:49.412Z,97.30
2018-02-15T07:17:49.394Z,96.83
2018-02-15T07:18:49.374Z,96.07
2018-02-15T07:19:49.354Z,95.88
2018-02-15T07:20:49.340Z,95.88
2018-02-15T07:21:49.314Z,96.83
2018-02-15T07:22:49.299Z,97.67
2018-02-15T07:23:49.275Z,98.33
2018-02-15T07:24:49.253Z,97.06
2018-02-15T07:25:49.243Z,96.88
2018-02-15T07:26:49.217Z,96.69
2018-02-15T07:27:49.199Z,95.83
2018-02-15T07:28:49.179Z,97.06
2018-02-15T07:29:49.164Z,98.39
2018-02-15T07:30:49.141Z,95.36
2018-02-15T07:31:49.118Z,94.60
2018-02-15T07:32:49.098Z,95.17
2018-02-15T07:33:49.084Z,94.60
2018-02-15T07:34:49.073Z,95.36
2018-02-15T07:35:49.041Z,98.20
2018-02-15T07:36:49.028Z,96.88
2018-02-15T07:37:49.000Z,94.51
2018-02-15T07:38:48.993Z,94.42
2018-02-15T07:39:48.973Z,94.79
2018-02-15T07:40:48.941Z,94.98
2018-02-15T07:41:48.932Z,94.98
2018-02-15T07:42:48.908Z,95.17
2018-02-15T07:43:48.891Z,95.17
2018-02-15T07:44:48.872Z,96.88
2018-02-15T07:45:48.844Z,96.02
2018-02-15T07:46:48.830Z,95.64
2018-02-15T07:47:48.814Z,95.83
2018-02-15T07:48:48.799Z,96.40
2018-02-15T07:49:48.770Z,96.02
2018-02-15T07:50:48.758Z,96.97
2018-02-15T07:51:48.730Z,97.34
2018-02-15T07:52:48.711Z,97.53
2018-02-15T07:53:48.691Z,95.74
2018-02-15T07:54:48.680Z,95.26
2018-02-15T07:55:48.652Z,94.04
2018-02-15T07:56:48.633Z,95.07
2018-02-15T07:57:48.614Z,96.97
2018-02-15T07:58:48.600Z,95.07
2018-02-15T07:59:48.578Z,94.32
2018-02-15T08:00:48.557Z,94.51
2018-02-15T08:01:48.539Z,94.13
2018-02-15T08:02:48.559Z,94.60
2018-02-15T08:03:48.500Z,95.17
2018-02-15T08:04:48.478Z,95.45
2018-02-15T08:05:48.461Z,96.59
2018-02-15T08:06:48.450Z,95.93
2018-02-15T08:07:48.419Z,95.07
2018-02-15T08:08:48.409Z,94.98
2018-02-15T08:09:48.388Z,96.02
2018-02-15T08:10:48.369Z,96.88
2018-02-15T08:11:48.343Z,94.60
2018-02-15T08:12:48.329Z,94.13
2018-02-15T08:13:48.304Z,95.59
2018-02-15T08:14:48.288Z,97.11
2018-02-15T08:15:48.268Z,95.88
2018-02-15T08:16:48.248Z,93.47
2018-02-15T08:17:48.233Z,93.99
2018-02-15T08:18:48.219Z,95.31
2018-02-15T08:19:48.196Z,96.07
2018-02-15T08:20:48.177Z,93.80
2018-02-15T08:21:48.159Z,93.80
2018-02-15T08:22:48.138Z,95.69
2018-02-15T08:23:48.118Z,95.59
2018-02-15T08:24:48.095Z,93.51
2018-02-15T08:25:48.080Z,93.13
2018-02-15T08:26:48.058Z,92.10
2018-02-15T08:27:48.039Z,92.76
2018-02-15T08:28:48.019Z,92.85
2018-02-15T08:29:48.003Z,94.46
2018-02-15T08:30:47.988Z,94.65
2018-02-15T08:31:47.963Z,94.65
2018-02-15T08:32:47.948Z,95.21
2018-02-15T08:33:47.923Z,93.99
2018-02-15T08:34:47.906Z,92.85
2018-02-15T08:35:47.893Z,94.65
2018-02-15T08:36:47.869Z,95.88
2018-02-15T08:37:47.858Z,93.23
2018-02-15T08:38:47.832Z,92.47
2018-02-15T08:39:47.811Z,94.08
2018-02-15T08:40:47.792Z,95.03
2018-02-15T08:41:47.783Z,95.31
2018-02-15T08:42:47.760Z,94.18
2018-02-15T08:43:47.749Z,92.00
2018-02-15T08:44:47.719Z,93.42
2018-02-15T08:45:47.700Z,93.27
2018-02-15T08:46:47.682Z,94.79
2018-02-15T08:47:47.662Z,93.65
2018-02-15T08:48:47.644Z,93.65
2018-02-15T08:49:47.627Z,93.27
2018-02-15T08:50:47.607Z,93.18
2018-02-15T08:51:47.593Z,93.75
2018-02-15T08:52:47.576Z,94.70
2018-02-15T08:53:47.557Z,93.37
2018-02-15T08:54:47.543Z,93.37
2018-02-15T08:55:47.515Z,92.24
2018-02-15T08:56:47.496Z,91.48
2018-02-15T08:57:47.485Z,92.14
2018-02-15T08:58:47.469Z,92.99
2018-02-15T08:59:47.441Z,91.57
2018-02-15T09:00:47.430Z,91.29
2018-02-15T09:01:47.404Z,90.63
2018-02-15T09:02:47.396Z,91.57
2018-02-15T09:03:47.376Z,90.81
2018-02-15T09:04:47.357Z,90.15
2018-02-15T09:05:47.336Z,90.63
2018-02-15T09:06:47.318Z,91.10
2018-02-15T09:07:47.294Z,91.19
2018-02-15T09:08:47.278Z,91.10
2018-02-15T09:09:47.260Z,93.94
2018-02-15T09:10:47.247Z,92.52
2018-02-15T09:11:47.222Z,91.95
2018-02-15T09:12:47.203Z,92.33
2018-02-15T09:13:47.185Z,91.29
2018-02-15T09:14:47.174Z,91.10
2018-02-15T09:15:47.149Z,91.76
2018-02-15T09:16:47.132Z,92.24
2018-02-15T09:17:47.113Z,91.57
2018-02-15T09:18:47.095Z,91.67
2018-02-15T09:19:47.079Z,91.86
2018-02-15T09:20:47.059Z,93.08
2018-02-15T09:21:47.042Z,93.37
2018-02-15T09:22:47.025Z,92.71
2018-02-15T09:23:47.006Z,95.07
2018-02-15T09:24:46.990Z,92.14
2018-02-15T09:25:46.970Z,92.14
2018-02-15T09:26:46.958Z,92.33
2018-02-15T09:27:46.936Z,92.43
2018-02-15T09:28:46.915Z,92.05
2018-02-15T09:29:46.898Z,92.61
2018-02-15T09:30:46.878Z,91.48
2018-02-15T09:31:46.863Z,91.38
2018-02-15T09:32:46.846Z,91.67
2018-02-15T09:33:46.827Z,91.95
2018-02-15T09:34:46.813Z,91.95
2018-02-15T09:35:46.790Z,92.80
2018-02-15T09:36:46.772Z,92.05
2018-02-15T09:37:46.763Z,92.90
2018-02-15T09:38:46.737Z,93.27
2018-02-15T09:39:46.720Z,93.37
2018-02-15T09:40:46.701Z,93.18
2018-02-15T09:41:46.682Z,94.32
2018-02-15T09:42:46.672Z,94.04
2018-02-15T09:43:46.648Z,93.84
2018-02-15T09:44:46.628Z,93.56
2018-02-15T09:45:46.620Z,94.79
2018-02-15T09:46:46.594Z,93.94
2018-02-15T09:47:46.575Z,93.75
2018-02-15T09:48:46.563Z,94.79
2018-02-15T09:49:46.543Z,93.75
2018-02-15T09:50:46.522Z,93.75
2018-02-15T09:51:46.503Z,93.56
2018-02-15T09:52:46.485Z,94.42
2018-02-15T09:53:46.466Z,94.42
2018-02-15T09:54:46.456Z,93.65
2018-02-15T09:55:46.437Z,94.42
2018-02-15T09:56:46.414Z,94.23
2018-02-15T09:57:46.396Z,94.98
2018-02-15T09:58:46.380Z,94.32
2018-02-15T09:59:46.360Z,94.42
2018-02-15T10:00:46.348Z,94.23
2018-02-15T10:01:46.329Z,94.23
2018-02-15T10:02:46.307Z,94.60
2018-02-15T10:03:46.288Z,94.23
2018-02-15T10:04:46.273Z,94.51
2018-02-15T10:05:46.251Z,93.84
2018-02-15T10:06:46.240Z,93.37
2018-02-15T10:07:46.219Z,93.94
2018-02-15T10:08:46.197Z,93.46
2018-02-15T10:09:46.181Z,94.42
2018-02-15T10:10:46.166Z,93.65
2018-02-15T10:11:46.144Z,93.27
2018-02-15T10:12:46.131Z,93.37
2018-02-15T10:13:46.111Z,93.84
2018-02-15T10:14:46.098Z,94.51
2018-02-15T10:15:46.075Z,94.51
2018-02-15T10:16:46.056Z,93.75
2018-02-15T10:17:46.042Z,93.65
2018-02-15T10:18:46.023Z,93.84
2018-02-15T10:19:46.005Z,94.42
2018-02-15T10:20:45.984Z,93.46
2018-02-15T10:21:45.967Z,94.51
2018-02-15T10:22:45.999Z,94.23
2018-02-15T10:23:45.941Z,94.60
2018-02-15T10:24:45.913Z,94.23
2018-02-15T10:25:45.903Z,93.56
2018-02-15T10:26:45.884Z,94.32
2018-02-15T10:27:45.866Z,94.04
2018-02-15T10:28:45.849Z,93.65
2018-02-15T10:29:45.831Z,93.75
2018-02-15T10:30:45.808Z,94.60
2018-02-15T10:31:45.799Z,94.42
2018-02-15T10:32:45.772Z,94.70
2018-02-15T10:33:45.758Z,94.70
2018-02-15T10:34:45.738Z,94.79
2018-02-15T10:35:45.719Z,94.51
2018-02-15T10:36:45.813Z,94.32
2018-02-15T10:37:45.685Z,94.18
2018-02-15T10:38:45.669Z,94.46
2018-02-15T10:39:45.648Z,93.70
2018-02-15T10:40:45.632Z,93.13
2018-02-15T10:41:45.615Z,93.42
2018-02-15T10:42:45.604Z,93.42
2018-02-15T10:43:45.585Z,93.23
2018-02-15T10:44:45.560Z,93.61
2018-02-15T10:45:45.548Z,93.42
2018-02-15T10:46:45.532Z,93.42
2018-02-15T10:47:45.508Z,94.18
2018-02-15T10:48:45.490Z,93.99
2018-02-15T10:49:45.474Z,93.51
2018-02-15T10:50:45.456Z,92.57
2018-02-15T10:51:45.446Z,92.76
2018-02-15T10:52:45.427Z,93.42
2018-02-15T10:53:45.404Z,93.51
2018-02-15T10:54:45.386Z,93.61
2018-02-15T10:55:45.374Z,93.13
2018-02-15T10:56:45.353Z,92.85
2018-02-15T10:57:45.335Z,93.23
2018-02-15T10:58:45.318Z,93.13
2018-02-15T10:59:45.298Z,93.23
2018-02-15T11:00:45.283Z,93.13
2018-02-15T11:01:45.266Z,93.80
2018-02-15T11:02:45.246Z,93.70
2018-02-15T11:03:45.228Z,93.42
2018-02-15T11:04:45.211Z,93.61
2018-02-15T11:05:45.198Z,93.42
2018-02-15T11:06:45.178Z,93.32
2018-02-15T11:07:45.159Z,93.32
2018-02-15T11:08:45.142Z,93.51
2018-02-15T11:09:45.130Z,93.13
2018-02-15T11:10:45.110Z,94.46
2018-02-15T11:11:45.089Z,93.42
2018-02-15T11:12:45.073Z,93.70
2018-02-15T11:13:45.055Z,94.56
2018-02-15T11:14:45.043Z,93.70
2018-02-15T11:15:45.044Z,92.76
2018-02-15T11:16:45.003Z,92.94
2018-02-15T11:17:44.988Z,92.76
2018-02-15T11:18:44.968Z,92.94
2018-02-15T11:19:44.951Z,93.42
2018-02-15T11:20:44.932Z,93.13
2018-02-15T11:21:44.916Z,93.04
2018-02-15T11:22:44.901Z,94.08
2018-02-15T11:23:44.886Z,93.99
2018-02-15T11:24:44.864Z,93.80
2018-02-15T11:25:44.849Z,93.61
2018-02-15T11:26:44.831Z,93.42
2018-02-15T11:27:44.817Z,93.89
2018-02-15T11:28:44.795Z,94.74
2018-02-15T11:29:44.784Z,94.27
2018-02-15T11:30:44.762Z,93.80
2018-02-15T11:31:44.745Z,93.32
2018-02-15T11:32:44.729Z,92.94
2018-02-15T11:33:44.711Z,92.52
2018-02-15T11:34:44.694Z,93.23
2018-02-15T11:35:44.687Z,94.42
2018-02-15T11:36:44.659Z,93.08
2018-02-15T11:37:44.650Z,92.85
2018-02-15T11:38:44.624Z,92.76
2018-02-15T11:39:44.607Z,93.42
2018-02-15T11:40:44.592Z,93.42
2018-02-15T11:41:44.572Z,95.55
2018-02-15T11:42:44.556Z,93.46
2018-02-15T11:43:44.543Z,92.47
2018-02-15T11:44:44.524Z,94.51
2018-02-15T11:45:44.509Z,92.99
2018-02-15T11:46:44.493Z,93.75
2018-02-15T11:47:44.471Z,93.46
2018-02-15T11:48:44.453Z,92.99
2018-02-15T11:49:44.435Z,93.08
2018-02-15T11:50:44.420Z,93.75
2018-02-15T11:51:44.404Z,92.99
2018-02-15T11:52:44.383Z,93.46
2018-02-15T11:53:44.369Z,92.61
2018-02-15T11:54:44.355Z,92.80
2018-02-15T11:55:44.335Z,92.71
2018-02-15T11:56:44.320Z,92.90
2018-02-15T11:57:44.300Z,92.71
2018-02-15T11:58:44.288Z,93.27
2018-02-15T11:59:44.265Z,93.18
2018-02-15T12:00:44.249Z,94.98
2018-02-15T12:01:44.236Z,94.04
2018-02-15T12:02:44.213Z,93.56
2018-02-15T12:03:44.203Z,94.32
2018-02-15T12:04:44.185Z,95.84
2018-02-15T12:05:44.169Z,93.84
2018-02-15T12:06:44.147Z,93.94
2018-02-15T12:07:44.128Z,93.08
2018-02-15T12:08:44.111Z,93.46
2018-02-15T12:09:44.094Z,93.94
2018-02-15T12:10:44.077Z,93.84
2018-02-15T12:11:44.063Z,94.23
2018-02-15T12:12:44.043Z,94.46
2018-02-15T12:13:44.034Z,94.79
2018-02-15T12:14:44.010Z,94.56
2018-02-15T12:15:43.997Z,94.84
2018-02-15T12:16:43.975Z,94.65
2018-02-15T12:17:43.958Z,94.27
2018-02-15T12:18:43.942Z,94.56
2018-02-15T12:19:43.925Z,94.74
2018-02-15T12:20:43.905Z,95.12
2018-02-15T12:21:43.892Z,95.22
2018-02-15T12:22:43.873Z,95.12
2018-02-15T12:23:43.858Z,96.36
2018-02-15T12:24:43.839Z,95.31
2018-02-15T12:25:43.824Z,95.17
2018-02-15T12:26:43.811Z,95.31
2018-02-15T12:27:43.790Z,94.84
2018-02-15T12:28:43.774Z,95.55
2018-02-15T12:29:43.756Z,95.84
2018-02-15T12:30:43.738Z,95.36
2018-02-15T12:31:43.729Z,94.79
2018-02-15T12:32:43.712Z,95.36
2018-02-15T12:33:43.688Z,94.79
2018-02-15T12:34:43.670Z,94.60
2018-02-15T12:35:43.657Z,95.26
2018-02-15T12:36:43.636Z,95.36
2018-02-15T12:37:43.618Z,94.89
2018-02-15T12:38:43.606Z,94.98
2018-02-15T12:39:43.583Z,95.45
2018-02-15T12:40:43.567Z,95.36
2018-02-15T12:41:43.551Z,95.26
2018-02-15T12:42:43.536Z,95.36
2018-02-15T12:43:43.544Z,95.55
2018-02-15T12:44:43.499Z,95.65
2018-02-15T12:45:43.487Z,95.45
2018-02-15T12:46:43.468Z,95.45
2018-02-15T12:47:43.447Z,95.55
2018-02-15T12:48:43.435Z,95.84
2018-02-15T12:49:43.414Z,96.31
2018-02-15T12:50:43.401Z,96.22
2018-02-15T12:51:43.381Z,96.41
2018-02-15T12:52:43.367Z,95.74